createdAt,value
2019-03-13T00:01:00.670Z,96903.78
2019-03-13T00:03:29.159Z,96916.30
2019-03-13T00:05:57.795Z,96919.94
2019-03-13T00:08:25.998Z,96917.11
2019-03-13T00:10:54.227Z,96922.42
2019-03-13T00:13:22.435Z,96919.59
2019-03-13T00:15:50.642Z,96930.16
2019-03-13T00:18:18.848Z,96943.59
2019-03-13T00:20:47.053Z,96942.89
2019-03-13T00:23:15.271Z,96946.53
2019-03-13T00:25:43.481Z,96952.79
2019-03-13T00:28:11.699Z,96954.27
2019-03-13T00:30:41.885Z,96956.53
2019-03-13T00:33:10.096Z,96954.27
2019-03-13T00:35:38.295Z,96971.98
2019-03-13T00:38:06.512Z,96980.97
2019-03-13T00:40:34.714Z,96982.90
2019-03-13T00:43:02.923Z,96987.89
2019-03-13T00:45:31.130Z,96999.05
2019-03-13T00:47:59.614Z,96998.59
2019-03-13T00:50:34.686Z,96999.16
2019-03-13T00:53:02.900Z,96998.35
2019-03-13T00:55:31.130Z,96991.53
2019-03-13T00:57:59.347Z,97006.42
2019-03-13T01:00:35.177Z,97004.50
2019-03-13T01:03:03.459Z,97005.38
2019-03-13T01:05:42.052Z,97012.55
2019-03-13T01:08:10.262Z,97020.14
2019-03-13T01:10:38.460Z,97021.05
2019-03-13T01:13:06.673Z,97023.45
2019-03-13T01:15:35.223Z,97026.50
2019-03-13T01:18:03.427Z,97033.31
2019-03-13T01:20:31.984Z,97026.84
2019-03-13T01:23:00.205Z,97031.28
2019-03-13T01:25:28.406Z,97037.53
2019-03-13T01:27:56.618Z,97046.28
2019-03-13T01:30:26.459Z,97029.92
2019-03-13T01:32:56.307Z,97025.27
2019-03-13T01:35:29.311Z,97030.37
2019-03-13T01:37:57.553Z,97030.13
2019-03-13T01:40:26.071Z,97038.55
2019-03-13T01:42:54.281Z,97029.67
2019-03-13T01:45:22.569Z,97030.47
2019-03-13T01:47:50.770Z,97032.64
2019-03-13T01:50:18.970Z,97026.94
2019-03-13T01:52:48.802Z,97031.28
2019-03-13T01:55:17.258Z,97031.28
2019-03-13T01:57:45.462Z,97032.08
2019-03-13T02:00:15.251Z,97035.58
2019-03-13T02:02:43.469Z,97041.72
2019-03-13T02:05:11.655Z,97039.91
2019-03-13T02:07:39.852Z,97024.66
2019-03-13T02:10:11.166Z,97039.45
2019-03-13T02:12:39.378Z,97048.30
2019-03-13T02:15:10.315Z,97043.53
2019-03-13T02:17:38.518Z,97043.53
2019-03-13T02:20:08.771Z,97051.16
2019-03-13T02:22:36.974Z,97050.23
2019-03-13T02:25:07.963Z,97058.87
2019-03-13T02:27:36.161Z,97056.02
2019-03-13T02:30:16.086Z,97051.26
2019-03-13T02:32:44.293Z,97047.16
2019-03-13T02:35:12.498Z,97042.06
2019-03-13T02:37:40.700Z,97041.25
2019-03-13T02:40:13.612Z,97040.35
2019-03-13T02:42:41.803Z,97030.81
2019-03-13T02:45:11.351Z,97038.28
2019-03-13T02:47:39.542Z,97037.97
2019-03-13T02:50:16.036Z,97034.44
2019-03-13T02:52:44.231Z,97031.47
2019-03-13T02:55:12.436Z,97027.38
2019-03-13T02:57:40.628Z,97018.75
2019-03-13T03:00:17.979Z,97019.20
2019-03-13T03:02:56.518Z,97029.65
2019-03-13T03:05:24.719Z,97014.45
2019-03-13T03:07:52.934Z,97018.19
2019-03-13T03:10:21.219Z,97009.55
2019-03-13T03:12:49.419Z,97011.38
2019-03-13T03:15:19.257Z,97019.65
2019-03-13T03:17:47.474Z,97001.38
2019-03-13T03:20:18.324Z,97004.20
2019-03-13T03:22:46.491Z,97004.45
2019-03-13T03:25:16.093Z,97001.72
2019-03-13T03:27:44.564Z,97018.08
2019-03-13T03:30:23.236Z,97016.16
2019-03-13T03:32:51.447Z,97012.72
2019-03-13T03:35:19.667Z,97023.06
2019-03-13T03:37:47.860Z,97012.72
2019-03-13T03:40:22.549Z,97026.01
2019-03-13T03:42:48.299Z,97008.08
2019-03-13T03:45:16.518Z,97014.64
2019-03-13T03:47:45.016Z,97003.53
2019-03-13T03:50:17.595Z,97014.44
2019-03-13T03:52:45.799Z,97017.38
2019-03-13T03:55:15.913Z,97025.80
2019-03-13T03:57:44.184Z,97010.00
2019-03-13T04:00:18.990Z,97022.16
2019-03-13T04:02:47.197Z,97036.45
2019-03-13T04:05:15.494Z,97030.55
2019-03-13T04:07:43.672Z,97028.86
2019-03-13T04:10:15.320Z,97032.16
2019-03-13T04:12:43.471Z,97032.95
2019-03-13T04:15:13.230Z,97030.89
2019-03-13T04:17:41.422Z,97032.59
2019-03-13T04:20:12.260Z,97037.95
2019-03-13T04:22:40.454Z,97045.31
2019-03-13T04:25:26.849Z,97043.39
2019-03-13T04:27:55.312Z,97040.08
2019-03-13T04:30:23.519Z,97035.99
2019-03-13T04:32:51.740Z,97032.03
2019-03-13T04:35:19.953Z,97025.09
2019-03-13T04:37:48.160Z,97031.69
2019-03-13T04:40:16.692Z,97026.91
2019-03-13T04:42:44.893Z,97030.55
2019-03-13T04:45:13.083Z,97039.06
2019-03-13T04:47:41.293Z,97033.73
2019-03-13T04:50:13.214Z,97037.60
2019-03-13T04:52:41.562Z,97044.98
2019-03-13T04:55:12.181Z,97039.62
2019-03-13T04:57:40.379Z,97030.33
2019-03-13T05:00:16.436Z,97025.89
2019-03-13T05:02:45.000Z,97029.64
2019-03-13T05:05:37.444Z,97038.26
2019-03-13T05:08:05.643Z,97037.14
2019-03-13T05:10:33.840Z,97045.07
2019-03-13T05:13:02.179Z,97034.77
2019-03-13T05:15:30.476Z,97038.50
2019-03-13T05:17:58.625Z,97035.99
2019-03-13T05:20:26.825Z,97045.88
2019-03-13T05:22:55.029Z,97043.71
2019-03-13T05:25:23.226Z,97039.06
2019-03-13T05:27:51.427Z,97034.07
2019-03-13T05:30:19.631Z,97017.82
2019-03-13T05:32:47.847Z,97038.26
2019-03-13T05:35:16.039Z,97039.06
2019-03-13T05:37:44.243Z,97038.85
2019-03-13T05:40:12.445Z,97039.41
2019-03-13T05:42:40.644Z,97039.87
2019-03-13T05:45:09.652Z,97032.81
2019-03-13T05:47:37.849Z,97035.53
2019-03-13T05:50:08.792Z,97033.95
2019-03-13T05:52:37.102Z,97038.95
2019-03-13T05:55:06.254Z,97054.40
2019-03-13T05:57:34.460Z,97041.33
2019-03-13T06:00:03.137Z,97044.61
2019-03-13T06:02:31.677Z,97049.16
2019-03-13T06:04:59.875Z,97058.70
2019-03-13T06:07:28.094Z,97045.98
2019-03-13T06:09:56.296Z,97042.13
2019-03-13T06:12:24.502Z,97056.32
2019-03-13T06:14:52.705Z,97044.61
2019-03-13T06:17:21.235Z,97045.98
2019-03-13T06:19:49.454Z,97045.98
2019-03-13T06:22:17.999Z,97045.98
2019-03-13T06:24:46.269Z,97058.48
2019-03-13T06:27:14.486Z,97066.11
2019-03-13T06:29:42.689Z,97053.03
2019-03-13T06:32:11.142Z,97054.52
2019-03-13T06:34:39.871Z,97062.59
2019-03-13T06:37:08.085Z,97049.52
2019-03-13T06:39:36.281Z,97048.96
2019-03-13T06:42:04.491Z,97052.25
2019-03-13T06:44:32.688Z,97048.72
2019-03-13T06:47:01.261Z,97060.21
2019-03-13T06:49:29.460Z,97050.78
2019-03-13T06:51:57.680Z,97059.87
2019-03-13T06:54:26.188Z,97047.61
2019-03-13T06:56:54.419Z,97050.09
2019-03-13T06:59:26.953Z,97051.02
2019-03-13T07:02:02.719Z,97059.45
2019-03-13T07:04:32.563Z,97048.98
2019-03-13T07:07:08.736Z,97053.28
2019-03-13T07:09:39.722Z,97044.42
2019-03-13T07:12:24.880Z,97040.90
2019-03-13T07:14:57.698Z,97042.05
2019-03-13T07:17:30.549Z,97045.55
2019-03-13T07:20:03.534Z,97047.16
2019-03-13T07:22:49.599Z,97036.59
2019-03-13T07:25:25.685Z,97033.52
2019-03-13T07:27:58.567Z,97030.70
2019-03-13T07:30:44.748Z,97031.93
2019-03-13T18:43:35.162Z,96855.09
2019-03-13T18:46:03.375Z,96855.15
2019-03-13T18:48:31.617Z,96847.63
2019-03-13T18:50:59.822Z,96851.12
2019-03-13T18:53:28.023Z,96849.47
2019-03-13T18:55:56.527Z,96864.67
2019-03-13T18:58:24.726Z,96869.30
2019-03-13T19:00:53.389Z,96863.75
2019-03-13T19:03:21.597Z,96861.30
2019-03-13T19:05:50.143Z,96879.72
2019-03-13T19:08:18.343Z,96875.33
2019-03-13T19:10:46.552Z,96880.69
2019-03-13T19:13:14.749Z,96888.38
2019-03-13T19:15:42.958Z,96903.15
2019-03-13T19:18:11.236Z,96901.80
2019-03-13T19:20:39.443Z,96904.98
2019-03-13T19:23:07.644Z,96911.58
2019-03-13T19:25:35.868Z,96905.23
2019-03-13T19:28:05.788Z,96909.75
2019-03-13T19:30:37.535Z,96908.15
2019-03-13T19:33:04.738Z,96913.27
2019-03-13T19:35:32.961Z,96924.56
2019-03-13T19:38:07.072Z,96907.59
2019-03-13T19:40:35.291Z,96903.31
2019-03-13T19:43:03.604Z,96918.08
2019-03-13T19:45:39.847Z,96912.34
2019-03-13T19:48:08.346Z,96918.56
2019-03-13T19:50:36.569Z,96920.50
2019-03-13T19:53:04.961Z,96933.44
2019-03-13T19:55:33.232Z,96924.42
2019-03-13T19:58:01.453Z,96918.23
2019-03-13T20:00:29.663Z,96920.83
2019-03-13T20:03:12.369Z,96926.09
2019-03-13T20:05:45.753Z,96940.00
2019-03-13T20:08:13.561Z,96940.86
2019-03-13T20:10:40.446Z,96945.63
2019-03-13T20:13:08.650Z,96955.52
2019-03-13T20:15:36.879Z,96959.55
2019-03-13T20:18:05.511Z,96958.80
2019-03-13T20:20:33.699Z,96965.06
2019-03-13T20:23:06.285Z,96969.69
2019-03-13T20:25:34.479Z,96973.34
2019-03-13T20:28:02.702Z,96980.66
2019-03-13T20:30:30.974Z,96974.16
2019-03-13T20:32:59.201Z,96978.56
2019-03-13T20:35:27.398Z,96974.73
2019-03-13T20:37:55.604Z,96967.05
2019-03-13T20:40:24.852Z,96969.36
2019-03-13T20:42:53.098Z,96975.51
2019-03-13T20:45:23.168Z,96977.22
2019-03-13T20:47:51.643Z,96980.28
2019-03-13T20:50:19.907Z,96989.57
2019-03-13T20:52:48.506Z,96994.45
2019-03-13T20:55:17.934Z,96993.11
2019-03-13T20:57:46.144Z,97003.11
2019-03-13T21:00:24.191Z,97005.05
2019-03-13T21:02:54.490Z,97003.30
2019-03-13T21:05:22.768Z,97011.76
2019-03-13T21:07:50.973Z,97013.85
2019-03-13T21:10:19.170Z,97015.94
2019-03-13T21:12:47.417Z,97019.11
2019-03-13T21:15:20.824Z,97012.39
2019-03-13T21:17:49.028Z,97017.39
2019-03-13T21:20:17.772Z,97016.53
2019-03-13T21:22:46.248Z,97018.84
2019-03-13T21:25:20.037Z,97027.28
2019-03-13T21:27:48.533Z,97016.91
2019-03-13T21:30:22.279Z,97025.83
2019-03-13T21:32:50.667Z,97025.94
2019-03-13T21:35:18.855Z,97030.08
2019-03-13T21:37:47.070Z,97041.86
2019-03-13T21:40:17.895Z,97042.45
2019-03-13T21:42:46.111Z,97043.91
2019-03-13T21:45:22.543Z,97049.39
2019-03-13T21:47:44.604Z,97056.69
2019-03-13T21:50:14.237Z,97055.72
2019-03-13T21:52:42.523Z,97054.97
2019-03-13T21:55:12.566Z,97052.40
2019-03-13T21:57:40.782Z,97053.81
2019-03-13T22:00:20.057Z,97058.44
2019-03-13T22:02:48.259Z,97066.11
2019-03-13T22:05:25.863Z,97067.56
2019-03-13T22:07:46.691Z,97075.73
2019-03-13T22:10:15.942Z,97074.01
2019-03-13T22:12:44.453Z,97075.73
2019-03-13T22:15:17.356Z,97084.75
2019-03-13T22:17:45.580Z,97077.17
2019-03-13T22:20:15.615Z,97083.52
2019-03-13T22:22:43.850Z,97096.56
2019-03-13T22:25:17.499Z,97100.10
2019-03-13T22:27:45.704Z,97109.50
2019-03-13T22:30:24.813Z,97102.41
2019-03-13T22:32:53.138Z,97112.25
2019-03-13T22:35:21.398Z,97104.31
2019-03-13T22:37:49.618Z,97112.47
2019-03-13T22:40:18.346Z,97120.04
2019-03-13T22:42:46.945Z,97108.92
2019-03-13T22:45:20.589Z,97120.14
2019-03-13T22:47:48.736Z,97115.64
2019-03-13T22:50:19.345Z,97106.83
2019-03-13T22:52:47.561Z,97119.02
2019-03-13T22:55:15.757Z,97136.47
2019-03-13T22:57:43.957Z,97140.38
2019-03-13T23:00:32.014Z,97139.62
2019-03-13T23:03:00.554Z,97139.14
2019-03-13T23:05:28.747Z,97143.66
2019-03-13T23:07:56.975Z,97145.00
2019-03-13T23:10:30.215Z,97146.82
2019-03-13T23:12:58.675Z,97148.27
2019-03-13T23:15:26.872Z,97145.69
2019-03-13T23:17:55.072Z,97152.78
2019-03-13T23:20:23.275Z,97164.95
2019-03-13T23:22:51.779Z,97166.30
2019-03-13T23:25:19.986Z,97164.95
2019-03-13T23:27:48.530Z,97165.34
2019-03-13T23:30:17.181Z,97176.14
2019-03-13T23:32:45.310Z,97175.39
2019-03-13T23:35:13.519Z,97172.22
2019-03-13T23:37:41.715Z,97178.94
2019-03-13T23:40:10.321Z,97192.35
2019-03-13T23:42:38.661Z,97191.02
2019-03-13T23:45:09.862Z,97199.64
2019-03-13T23:47:38.066Z,97190.63
2019-03-13T23:50:09.158Z,97197.83
2019-03-13T23:52:37.630Z,97199.64
2019-03-13T23:55:06.821Z,97207.22
2019-03-13T23:57:35.028Z,97219.78
